Big Bear Station Historical Data
Daily Summary for February 1, 2019 Units:  English    Metric   Both
Next Day »
Daily Weekly Monthly Yearly Custom
  High: Low: Average:
Temperature: 44.6 °F 26.6 °F 33.9 °F
Dew Point: 39.5 °F 26.1 °F 32 °F
Humidity: 99% 81% 93%
Wind Speed: 4.7mph 0.0mph 0.6mph
Wind Gust: -999.0mph - -
Wind- - WSW
Pressure: 23.42 in 23.36 in -
Precipitation: 0.08 in    
Historical Graphs
 
 
Tabular Data for February 1, 2019
Time Temperature Dew Point Pressure Wind Wind Speed Wind Gust Humidity Rainfall Rate (Hourly)
00:10 29.7 °F 29.5 °F 23.39 in Calm   -999.0 mph 99% 0.00 in
00:25 29.7 °F 29.5 °F 23.39 in Calm   -999.0 mph 99% 0.00 in
00:40 29.5 °F 29.3 °F 23.39 in Calm   -999.0 mph 99% 0.00 in
00:56 29.1 °F 28.9 °F 23.39 in Calm   -999.0 mph 99% 0.00 in
01:11 28.9 °F 28.7 °F 23.38 in Calm   -999.0 mph 99% 0.00 in
01:27 28.6 °F 28.4 °F 23.38 in Calm   -999.0 mph 99% 0.00 in
01:42 28.8 °F 28.6 °F 23.38 in Calm   -999.0 mph 99% 0.00 in
01:57 28.6 °F 28.4 °F 23.38 in Calm   -999.0 mph 99% 0.00 in
02:12 28.4 °F 28.2 °F 23.38 in Calm   -999.0 mph 99% 0.00 in
02:27 28.2 °F 28.0 °F 23.38 in Calm   -999.0 mph 99% 0.00 in
02:43 28.9 °F 28.7 °F 23.38 in Calm   -999.0 mph 99% 0.00 in
02:58 28.8 °F 28.6 °F 23.38 in Calm   -999.0 mph 99% 0.00 in
03:13 28.4 °F 28.2 °F 23.38 in Calm   -999.0 mph 99% 0.00 in
03:28 28.2 °F 28.0 °F 23.37 in Calm   -999.0 mph 99% 0.00 in
03:43 27.9 °F 27.7 °F 23.38 in Calm   -999.0 mph 99% 0.00 in
03:59 27.7 °F 27.5 °F 23.38 in Calm   -999.0 mph 99% 0.00 in
04:14 27.5 °F 27.3 °F 23.37 in Calm   -999.0 mph 99% 0.00 in
04:30 27.3 °F 27.1 °F 23.37 in Calm   -999.0 mph 99% 0.00 in
04:45 27.1 °F 26.9 °F 23.37 in Calm   -999.0 mph 99% 0.00 in
05:00 27.1 °F 26.9 °F 23.37 in Calm   -999.0 mph 99% 0.00 in
05:15 26.6 °F 26.4 °F 23.38 in Calm   -999.0 mph 99% 0.00 in
05:30 26.6 °F 26.1 °F 23.38 in Calm   -999.0 mph 98% 0.00 in
05:46 26.8 °F 26.3 °F 23.38 in Calm   -999.0 mph 98% 0.00 in
06:01 27.0 °F 26.5 °F 23.38 in Calm   -999.0 mph 98% 0.00 in
06:16 27.1 °F 26.6 °F 23.38 in Calm   -999.0 mph 98% 0.00 in
06:32 27.1 °F 26.6 °F 23.38 in Calm   -999.0 mph 98% 0.00 in
06:47 27.0 °F 26.5 °F 23.39 in Calm   -999.0 mph 98% 0.00 in
07:02 26.8 °F 26.3 °F 23.40 in Calm   -999.0 mph 98% 0.00 in
07:18 27.0 °F 26.5 °F 23.39 in Calm   -999.0 mph 98% 0.00 in
07:33 27.1 °F 26.6 °F 23.40 in Calm   -999.0 mph 98% 0.00 in
07:48 27.9 °F 27.4 °F 23.40 in Calm   -999.0 mph 98% 0.00 in
08:03 28.4 °F 27.9 °F 23.40 in Calm   -999.0 mph 98% 0.00 in
08:18 29.1 °F 28.6 °F 23.41 in Calm   -999.0 mph 98% 0.00 in
08:34 30.0 °F 29.8 °F 23.41 in Calm   -999.0 mph 99% 0.00 in
08:49 31.8 °F 31.6 °F 23.41 in Calm   -999.0 mph 99% 0.00 in
09:04 33.1 °F 32.8 °F 23.42 in Calm   -999.0 mph 99% 0.00 in
09:19 33.4 °F 33.1 °F 23.42 in Calm   -999.0 mph 99% 0.00 in
09:34 34.7 °F 34.4 °F 23.42 in Calm   -999.0 mph 99% 0.00 in
09:50 36.3 °F 35.3 °F 23.42 in Calm   -999.0 mph 96% 0.00 in
10:05 37.2 °F 36.2 °F 23.42 in Calm   -999.0 mph 96% 0.00 in
10:20 40.8 °F 37.2 °F 23.42 in Calm   -999.0 mph 87% 0.00 in
10:35 41.9 °F 37.1 °F 23.42 in Calm   -999.0 mph 83% 0.00 in
10:50 41.9 °F 38.0 °F 23.42 in Calm   -999.0 mph 86% 0.00 in
11:06 43.5 °F 39.0 °F 23.41 in Calm   -999.0 mph 84% 0.00 in
11:21 43.0 °F 38.2 °F 23.42 in Calm   -999.0 mph 83% 0.00 in
11:36 43.0 °F 37.9 °F 23.41 in Calm   -999.0 mph 82% 0.00 in
11:51 42.1 °F 38.2 °F 23.41 in WNW 3.2 mph -999.0 mph 86% 0.00 in
12:07 42.8 °F 38.9 °F 23.40 in NW 4.7 mph -999.0 mph 86% 0.00 in
12:22 44.1 °F 39.0 °F 23.39 in Calm   -999.0 mph 82% 0.00 in
12:37 44.6 °F 39.1 °F 23.38 in WNW 3.7 mph -999.0 mph 81% 0.00 in
12:52 43.7 °F 39.5 °F 23.38 in Calm   -999.0 mph 85% 0.00 in
13:08 42.3 °F 38.7 °F 23.38 in NNW 4.2 mph -999.0 mph 87% 0.00 in
13:23 41.7 °F 38.4 °F 23.38 in NW 4.7 mph -999.0 mph 88% 0.00 in
13:38 41.2 °F 37.9 °F 23.38 in Calm   -999.0 mph 88% 0.00 in
13:54 41.2 °F 38.2 °F 23.37 in NW 2.7 mph -999.0 mph 89% 0.00 in
14:09 40.6 °F 37.6 °F 23.37 in ENE 1.1 mph -999.0 mph 89% 0.00 in
14:24 41.4 °F 38.1 °F 23.37 in Calm   -999.0 mph 88% 0.00 in
14:39 41.4 °F 38.1 °F 23.37 in SW 4.7 mph -999.0 mph 88% 0.00 in
14:54 39.9 °F 37.5 °F 23.37 in WNW 2.2 mph -999.0 mph 91% 0.00 in
15:10 40.3 °F 37.9 °F 23.37 in NW 2.7 mph -999.0 mph 91% 0.00 in
15:25 39.7 °F 37.0 °F 23.37 in NNW 2.7 mph -999.0 mph 90% 0.00 in
15:41 39.0 °F 36.3 °F 23.37 in ESE 3.2 mph -999.0 mph 90% 0.00 in
15:56 38.8 °F 36.1 °F 23.38 in WNW 4.7 mph -999.0 mph 90% 0.00 in
16:11 38.7 °F 36.0 °F 23.37 in Calm   -999.0 mph 90% 0.00 in
16:26 38.7 °F 35.5 °F 23.38 in Calm   -999.0 mph 88% 0.00 in
16:41 38.5 °F 35.3 °F 23.38 in Calm   -999.0 mph 88% 0.00 in
16:57 37.6 °F 34.4 °F 23.37 in Calm   -999.0 mph 88% 0.00 in
17:12 36.7 °F 33.8 °F 23.37 in NNE 4.2 mph -999.0 mph 89% 0.00 in
17:27 36.0 °F 33.4 °F 23.38 in Calm   -999.0 mph 90% 0.00 in
17:43 35.1 °F 32.5 °F 23.38 in Calm   -999.0 mph 90% 0.00 in
17:58 34.0 °F 31.7 °F 23.38 in Calm   -999.0 mph 91% 0.00 in
18:13 33.1 °F 31.3 °F 23.38 in Calm   -999.0 mph 93% 0.00 in
18:28 33.1 °F 29.9 °F 23.38 in Calm   -999.0 mph 88% 0.00 in
18:44 32.7 °F 29.3 °F 23.38 in Calm   -999.0 mph 87% 0.00 in
19:00 32.4 °F 29.5 °F 23.38 in Calm   -999.0 mph 89% 0.00 in
19:15 32.7 °F 29.8 °F 23.37 in Calm   -999.0 mph 89% 0.00 in
19:31 32.5 °F 29.3 °F 23.38 in Calm   -999.0 mph 88% 0.00 in
19:46 33.1 °F 30.8 °F 23.38 in Calm   -999.0 mph 91% 0.00 in
20:01 33.8 °F 31.5 °F 23.38 in Calm   -999.0 mph 91% 0.00 in
20:16 34.0 °F 31.4 °F 23.38 in SSE 2.7 mph -999.0 mph 90% 0.00 in
20:32 34.2 °F 31.0 °F 23.38 in Calm   -999.0 mph 88% 0.00 in
20:47 34.2 °F 31.3 °F 23.38 in Calm   -999.0 mph 89% 0.00 in
21:02 34.2 °F 31.6 °F 23.39 in Calm   -999.0 mph 90% 0.00 in
21:17 34.2 °F 31.8 °F 23.38 in Calm   -999.0 mph 91% 0.00 in
21:33 34.2 °F 32.1 °F 23.38 in Calm   -999.0 mph 92% 0.00 in
21:48 34.2 °F 32.1 °F 23.38 in Calm   -999.0 mph 92% 0.00 in
22:03 34.2 °F 32.1 °F 23.37 in Calm   -999.0 mph 92% 0.00 in
22:18 34.0 °F 31.9 °F 23.37 in Calm   -999.0 mph 92% 0.00 in
22:33 33.8 °F 31.7 °F 23.37 in Calm   -999.0 mph 92% 0.00 in
22:49 33.6 °F 30.7 °F 23.37 in WNW 1.1 mph -999.0 mph 89% 0.00 in
23:04 33.6 °F 31.5 °F 23.36 in Calm   -999.0 mph 92% 0.00 in
23:19 33.6 °F 31.5 °F 23.37 in Calm   -999.0 mph 92% 0.00 in
23:35 33.8 °F 31.5 °F 23.36 in Calm   -999.0 mph 91% 0.00 in
23:50 33.6 °F 31.5 °F 23.36 in Calm   -999.0 mph 92% 0.00 in
Big Bear CA Weather